createdAt,value
2023-05-01T00:02:02.801Z,8.03
2023-05-01T00:04:44.141Z,7.50
2023-05-01T00:07:12.614Z,8.67
2023-05-01T00:09:41.017Z,7.47
2023-05-01T00:12:14.116Z,7.63
2023-05-01T00:14:41.961Z,7.43
2023-05-01T00:17:15.276Z,7.20
2023-05-01T00:19:47.139Z,6.37
2023-05-01T00:22:17.189Z,6.60
2023-05-01T00:24:48.026Z,7.20
2023-05-01T00:27:16.553Z,6.10
2023-05-01T00:29:48.631Z,6.50
2023-05-01T00:32:18.538Z,7.07
2023-05-01T00:34:48.650Z,7.30
2023-05-01T00:37:21.251Z,6.97
2023-05-01T00:39:49.517Z,7.03
2023-05-01T00:42:17.716Z,7.40
2023-05-01T00:44:47.662Z,6.97
2023-05-01T00:47:24.745Z,6.70
2023-05-01T00:49:56.984Z,5.60
2023-05-01T00:52:25.838Z,7.80
2023-05-01T00:54:56.598Z,7.23
2023-05-01T00:57:24.922Z,6.83
2023-05-01T00:59:53.435Z,7.37
2023-05-01T01:02:22.643Z,7.43
2023-05-01T01:04:51.511Z,6.53
2023-05-01T01:07:25.415Z,7.13
2023-05-01T01:10:02.381Z,7.27
2023-05-01T01:12:36.062Z,8.20
2023-05-01T01:15:12.676Z,7.03
2023-05-01T01:17:44.760Z,7.00
2023-05-01T01:20:23.614Z,7.93
2023-05-01T01:23:05.163Z,7.53
2023-05-01T01:26:00.724Z,7.00
2023-05-01T01:28:59.004Z,7.17
2023-05-01T01:31:34.880Z,6.33
2023-05-01T01:34:07.291Z,7.70
2023-05-01T01:36:44.480Z,8.43
2023-05-01T01:39:28.296Z,8.13
2023-05-01T01:42:03.851Z,9.07
2023-05-01T01:44:36.150Z,8.17
2023-05-01T01:47:07.313Z,8.10
2023-05-01T01:49:51.603Z,8.60
2023-05-01T01:52:27.063Z,7.77
2023-05-01T01:54:58.780Z,7.07
2023-05-01T01:57:27.950Z,8.20
2023-05-01T02:00:00.851Z,8.00
2023-05-01T02:02:41.161Z,8.00
2023-05-01T02:05:15.764Z,8.13
2023-05-01T02:07:50.389Z,8.07
2023-05-01T02:10:20.129Z,9.10
2023-05-01T02:12:55.136Z,7.33
2023-05-01T02:15:28.348Z,7.80
2023-05-01T02:17:57.357Z,6.83
2023-05-01T02:20:28.520Z,7.93
2023-05-01T02:22:59.604Z,7.37
2023-05-01T02:25:29.714Z,6.10
2023-05-01T02:28:12.929Z,7.47
2023-05-01T02:30:42.693Z,6.17
2023-05-01T02:33:11.332Z,8.27
2023-05-01T02:35:53.049Z,7.23
2023-05-01T02:38:24.594Z,8.03
2023-05-01T02:40:56.190Z,7.80
2023-05-01T02:43:25.003Z,8.00
2023-05-01T02:45:54.133Z,8.73
2023-05-01T02:48:31.417Z,9.00
2023-05-01T02:51:02.418Z,9.00
2023-05-01T02:53:34.298Z,8.10
2023-05-01T02:56:05.665Z,8.00
2023-05-01T02:58:34.386Z,8.90
2023-05-01T03:01:02.572Z,7.70
2023-05-01T03:03:31.041Z,7.70
2023-05-01T03:06:00.663Z,8.07
2023-05-01T03:08:28.453Z,8.07
2023-05-01T03:10:56.307Z,7.83
2023-05-01T03:13:24.815Z,9.17
2023-05-01T03:15:53.476Z,9.30
2023-05-01T03:18:21.375Z,8.23
2023-05-01T03:20:53.894Z,7.63
2023-05-01T03:23:24.652Z,7.83
2023-05-01T03:25:57.008Z,7.50
2023-05-01T03:28:25.275Z,7.37
2023-05-01T03:30:54.490Z,7.47
2023-05-01T03:33:26.533Z,7.80
2023-05-01T03:36:02.302Z,7.03
2023-05-01T03:38:32.492Z,7.00
2023-05-01T03:41:02.861Z,7.20
2023-05-01T03:43:36.114Z,7.57
2023-05-01T03:46:21.097Z,6.20
2023-05-01T03:49:00.151Z,7.07
2023-05-01T03:51:41.061Z,7.17
2023-05-01T03:54:10.892Z,6.90
2023-05-01T03:56:50.818Z,7.07
2023-05-01T03:59:18.960Z,6.77
2023-05-01T04:01:49.136Z,8.30
2023-05-01T04:04:17.522Z,6.43
2023-05-01T04:06:52.030Z,7.20
2023-05-01T04:09:24.963Z,7.03
2023-05-01T04:11:56.063Z,7.20
2023-05-01T04:14:23.837Z,7.30
2023-05-01T04:16:56.026Z,7.83
2023-05-01T04:19:26.303Z,6.37
2023-05-01T04:21:57.281Z,7.47
2023-05-01T04:24:26.818Z,7.13
2023-05-01T04:26:58.544Z,6.23
2023-05-01T04:29:26.635Z,6.97
2023-05-01T04:31:54.855Z,7.13
2023-05-01T04:34:29.411Z,6.80
2023-05-01T04:36:59.291Z,6.20
2023-05-01T04:39:32.030Z,5.77
2023-05-01T04:42:00.098Z,7.00
2023-05-01T04:44:27.865Z,7.40
2023-05-01T04:46:55.866Z,6.43
2023-05-01T04:49:26.749Z,7.00
2023-05-01T04:51:55.051Z,6.93
2023-05-01T04:54:23.234Z,7.10
2023-05-01T04:56:58.970Z,8.00
2023-05-01T04:59:29.443Z,7.27
2023-05-01T05:01:58.572Z,7.33
2023-05-01T05:04:29.578Z,6.50
2023-05-01T05:07:00.238Z,6.90
2023-05-01T05:09:32.457Z,6.03
2023-05-01T05:12:03.748Z,6.73
2023-05-01T05:14:32.122Z,7.03
2023-05-01T05:17:00.394Z,7.53
2023-05-01T05:19:29.250Z,6.70
2023-05-01T05:22:15.330Z,8.00
2023-05-01T05:24:43.243Z,7.30
2023-05-01T05:27:13.225Z,6.60
2023-05-01T05:29:45.114Z,6.93
2023-05-01T05:32:15.273Z,8.03
2023-05-01T05:34:43.743Z,6.80
2023-05-01T05:37:14.424Z,8.00
2023-05-01T05:39:44.391Z,7.50
2023-05-01T05:42:14.411Z,8.00
2023-05-01T05:44:48.598Z,7.70
2023-05-01T05:47:16.347Z,6.90
2023-05-01T05:49:58.656Z,7.43
2023-05-01T05:52:29.535Z,7.80
2023-05-01T05:55:01.520Z,6.93
2023-05-01T05:57:47.863Z,7.47
2023-05-01T06:00:17.212Z,6.97
2023-05-01T06:02:45.366Z,7.53
2023-05-01T06:05:20.957Z,6.43
2023-05-01T06:07:56.836Z,8.27
2023-05-01T06:10:25.115Z,8.93
2023-05-01T06:13:05.451Z,7.73
2023-05-01T06:15:44.225Z,7.50
2023-05-01T06:18:12.858Z,8.40
2023-05-01T06:20:40.865Z,7.50
2023-05-01T06:23:11.515Z,8.80
2023-05-01T06:25:44.417Z,8.33
2023-05-01T06:28:13.528Z,7.63
2023-05-01T06:30:44.235Z,7.03
2023-05-01T06:33:16.008Z,7.30
2023-05-01T06:35:43.855Z,7.73
2023-05-01T06:38:17.492Z,7.10
2023-05-01T06:40:47.255Z,7.40
2023-05-01T06:43:20.754Z,7.87
2023-05-01T06:45:48.978Z,6.67
2023-05-01T06:48:17.478Z,6.50
2023-05-01T06:50:45.216Z,6.57
2023-05-01T06:53:13.530Z,7.63
2023-05-01T06:55:42.001Z,7.50
2023-05-01T06:58:22.779Z,7.80
2023-05-01T07:00:55.083Z,6.87
2023-05-01T07:03:27.739Z,7.57
2023-05-01T07:06:02.514Z,8.37
2023-05-01T07:08:30.851Z,6.77
2023-05-01T07:11:00.213Z,7.40
2023-05-01T07:13:28.376Z,7.40
2023-05-01T07:16:00.971Z,6.60
2023-05-01T07:18:32.204Z,7.40
2023-05-01T07:21:04.623Z,6.97
2023-05-01T07:23:32.715Z,6.63
2023-05-01T07:26:01.469Z,8.07
2023-05-01T07:28:31.098Z,7.67
2023-05-01T07:31:12.134Z,7.50
2023-05-01T07:33:45.662Z,7.90
2023-05-01T07:36:17.045Z,7.67
2023-05-01T07:38:47.121Z,8.57
2023-05-01T07:41:17.427Z,7.47
2023-05-01T07:43:48.918Z,7.40
2023-05-01T07:46:27.313Z,7.53
2023-05-01T07:48:55.438Z,7.90
2023-05-01T07:51:23.343Z,7.40
2023-05-01T07:53:54.289Z,9.13
2023-05-01T07:56:24.575Z,7.70
2023-05-01T07:58:59.542Z,7.60
2023-05-01T08:01:34.436Z,7.83
2023-05-01T08:04:03.914Z,7.87
2023-05-01T08:06:35.123Z,7.63
2023-05-01T08:09:02.942Z,7.40
2023-05-01T08:11:31.230Z,8.20
2023-05-01T08:13:59.577Z,8.13
2023-05-01T08:16:28.986Z,7.93
2023-05-01T08:18:59.985Z,7.70
2023-05-01T08:21:30.321Z,8.17
2023-05-01T08:24:00.972Z,7.67
2023-05-01T08:26:52.438Z,6.97
2023-05-01T08:29:22.817Z,7.50
2023-05-01T08:31:59.504Z,7.13
2023-05-01T08:34:27.279Z,6.83
2023-05-01T08:36:55.919Z,7.77
2023-05-01T08:39:24.183Z,6.77
2023-05-01T08:41:54.298Z,6.73
2023-05-01T08:44:26.192Z,7.63
2023-05-01T08:47:06.656Z,6.90
2023-05-01T08:49:37.711Z,6.53
2023-05-01T08:52:10.180Z,6.97
2023-05-01T08:54:41.043Z,6.70
2023-05-01T08:57:13.001Z,5.97
2023-05-01T08:59:42.067Z,7.40
2023-05-01T09:02:14.685Z,6.00
2023-05-01T09:04:46.231Z,5.70
2023-05-01T09:07:18.314Z,7.00
2023-05-01T09:09:51.627Z,6.57
2023-05-01T09:12:24.448Z,6.07
2023-05-01T09:14:53.345Z,5.93
2023-05-01T09:17:24.684Z,5.83
2023-05-01T09:19:52.686Z,6.63
2023-05-01T09:22:24.091Z,5.63
2023-05-01T09:24:54.518Z,6.37
2023-05-01T09:27:25.678Z,6.10
2023-05-01T09:29:54.024Z,5.90
2023-05-01T09:32:28.865Z,6.10
2023-05-01T09:35:11.382Z,4.83
2023-05-01T09:37:39.908Z,5.20
2023-05-01T09:40:12.488Z,5.13
2023-05-01T09:42:45.100Z,5.73
2023-05-01T09:45:28.109Z,4.60
2023-05-01T09:48:11.179Z,6.40
2023-05-01T09:50:42.738Z,5.57
2023-05-01T09:53:12.038Z,5.30
2023-05-01T09:55:50.764Z,5.43
2023-05-01T09:58:37.277Z,5.47
2023-05-01T10:01:07.308Z,5.30
2023-05-01T10:03:40.755Z,6.00
2023-05-01T10:06:10.386Z,4.93
2023-05-01T10:08:49.161Z,5.57
2023-05-01T10:11:24.563Z,6.20
2023-05-01T10:14:09.492Z,6.77
2023-05-01T10:16:38.915Z,5.80
2023-05-01T10:19:12.741Z,6.27
2023-05-01T10:21:46.782Z,7.27
2023-05-01T10:24:23.066Z,7.07
2023-05-01T10:26:52.144Z,6.40
2023-05-01T10:29:30.595Z,6.80
2023-05-01T10:32:01.890Z,7.80
2023-05-01T10:34:33.027Z,8.87
2023-05-01T10:37:07.219Z,8.10
2023-05-01T10:39:50.077Z,7.80
2023-05-01T10:42:21.798Z,7.67
2023-05-01T10:44:52.034Z,6.60
2023-05-01T10:47:52.055Z,7.80
2023-05-01T10:50:21.728Z,6.77
2023-05-01T10:53:21.672Z,7.00
2023-05-01T10:55:52.668Z,7.63
2023-05-01T10:58:57.337Z,8.30
2023-05-01T11:01:34.259Z,8.40
2023-05-01T11:04:06.419Z,8.00
2023-05-01T11:06:41.783Z,8.90
2023-05-01T11:09:37.055Z,8.10
2023-05-01T11:12:06.612Z,8.03
2023-05-01T11:15:08.642Z,8.67
2023-05-01T11:17:55.918Z,8.70
2023-05-01T11:20:52.170Z,8.00
2023-05-01T11:23:38.920Z,9.03
2023-05-01T11:26:07.111Z,8.60
2023-05-01T11:28:38.631Z,9.20
2023-05-01T11:31:14.410Z,8.93
2023-05-01T11:33:59.807Z,9.97
2023-05-01T11:36:28.820Z,8.90
2023-05-01T11:39:00.224Z,7.33
2023-05-01T11:41:29.992Z,9.10
2023-05-01T11:44:00.417Z,8.30
2023-05-01T11:46:29.965Z,8.70
2023-05-01T11:49:02.504Z,7.33
2023-05-01T11:51:32.640Z,9.17
2023-05-01T11:54:03.051Z,8.30
2023-05-01T11:56:35.213Z,8.43
2023-05-01T11:59:11.773Z,6.90
2023-05-01T12:01:45.848Z,6.47
2023-05-01T12:04:20.096Z,8.37
2023-05-01T12:06:48.479Z,7.40
2023-05-01T12:09:31.725Z,8.27
2023-05-01T12:12:04.256Z,7.43
2023-05-01T12:14:35.120Z,6.90
2023-05-01T12:17:04.550Z,7.13
2023-05-01T12:19:38.722Z,7.67
2023-05-01T12:22:07.817Z,8.40
2023-05-01T12:24:39.821Z,7.60
2023-05-01T12:27:11.036Z,9.17
2023-05-01T12:29:42.427Z,8.37
2023-05-01T12:32:11.111Z,7.37
2023-05-01T12:34:39.149Z,9.17
2023-05-01T12:37:07.217Z,8.00
2023-05-01T12:39:51.680Z,7.90
2023-05-01T12:42:22.378Z,9.07
2023-05-01T12:45:04.326Z,6.80
2023-05-01T12:47:38.156Z,8.37
2023-05-01T12:50:09.987Z,8.50
2023-05-01T12:52:38.272Z,8.10
2023-05-01T12:55:14.545Z,8.90
2023-05-01T12:57:59.489Z,8.33
2023-05-01T13:00:27.533Z,8.87
2023-05-01T13:02:56.078Z,8.00
2023-05-01T13:05:23.855Z,8.47
2023-05-01T13:07:58.158Z,8.70
2023-05-01T13:10:36.555Z,8.53
2023-05-01T13:13:08.296Z,8.70
2023-05-01T13:15:37.629Z,8.40
2023-05-01T13:18:14.750Z,8.33
2023-05-01T13:20:43.160Z,8.43
2023-05-01T13:23:11.851Z,7.60
2023-05-01T13:25:45.017Z,8.40
2023-05-01T13:28:23.532Z,8.00
2023-05-01T13:30:51.446Z,7.47
2023-05-01T13:33:22.216Z,7.90
2023-05-01T13:35:55.894Z,8.00
2023-05-01T13:38:26.578Z,7.13
2023-05-01T13:41:00.312Z,7.70
2023-05-01T13:43:29.287Z,7.40
2023-05-01T13:46:00.371Z,7.30
2023-05-01T13:48:33.265Z,7.80
2023-05-01T13:51:01.412Z,7.00
2023-05-01T13:53:30.854Z,7.70
2023-05-01T13:56:01.052Z,8.20
2023-05-01T13:58:34.707Z,8.43
2023-05-01T14:01:04.549Z,7.23
2023-05-01T14:03:41.566Z,6.83
2023-05-01T14:06:11.038Z,6.00
2023-05-01T14:08:39.334Z,5.90
2023-05-01T14:11:19.593Z,5.97
2023-05-01T14:13:50.334Z,6.67
2023-05-01T14:16:24.403Z,6.83
2023-05-01T14:18:57.944Z,7.17
2023-05-01T14:21:28.405Z,7.57
2023-05-01T14:23:58.356Z,7.30
2023-05-01T14:26:33.934Z,6.80
2023-05-01T14:29:03.188Z,8.00
2023-05-01T14:31:33.771Z,7.47
2023-05-01T14:34:08.584Z,7.60
2023-05-01T14:36:43.602Z,7.30
2023-05-01T14:39:11.938Z,6.37
2023-05-01T14:41:43.999Z,8.03
2023-05-01T14:44:16.173Z,7.97
2023-05-01T14:46:46.923Z,6.30
2023-05-01T14:49:23.947Z,7.63
2023-05-01T14:51:55.438Z,8.47
2023-05-01T14:54:23.731Z,7.50
2023-05-01T14:56:54.768Z,7.87
2023-05-01T14:59:28.629Z,7.83
2023-05-01T15:01:56.323Z,8.50
2023-05-01T15:04:29.048Z,8.40
2023-05-01T15:07:00.401Z,10.37
2023-05-01T15:09:30.109Z,9.77
2023-05-01T15:12:04.915Z,10.33
2023-05-01T15:14:34.221Z,11.07
2023-05-01T15:17:05.061Z,10.10
2023-05-01T15:19:33.699Z,9.43
2023-05-01T15:22:04.467Z,10.10
2023-05-01T15:24:34.144Z,9.37
2023-05-01T15:27:08.008Z,9.30
2023-05-01T15:29:36.548Z,11.47
2023-05-01T15:32:12.704Z,11.60
2023-05-01T15:34:46.474Z,9.33
2023-05-01T15:37:17.781Z,8.00
2023-05-01T15:39:50.842Z,8.37
2023-05-01T15:42:22.919Z,8.03
2023-05-01T15:44:53.236Z,8.50
2023-05-01T15:47:23.819Z,8.60
2023-05-01T15:49:51.900Z,9.27
2023-05-01T15:52:20.299Z,9.27
2023-05-01T15:54:48.608Z,8.27
2023-05-01T15:57:17.788Z,9.70
2023-05-01T15:59:53.975Z,7.80
2023-05-01T16:02:24.901Z,8.00
2023-05-01T16:04:59.649Z,8.97
2023-05-01T16:07:31.161Z,10.00
2023-05-01T16:09:59.624Z,8.20
2023-05-01T16:12:30.142Z,6.87
2023-05-01T16:15:05.620Z,5.30
2023-05-01T16:17:46.680Z,5.27
2023-05-01T16:20:17.607Z,4.27
2023-05-01T16:22:45.988Z,4.20
2023-05-01T16:25:22.774Z,4.23
2023-05-01T16:27:50.864Z,3.63
2023-05-01T16:30:22.066Z,4.77
2023-05-01T16:32:50.522Z,4.63
2023-05-01T16:35:19.439Z,5.27
2023-05-01T16:37:51.740Z,4.80
2023-05-01T16:40:23.731Z,4.40
2023-05-01T16:42:53.545Z,4.33
2023-05-01T16:45:23.557Z,4.37
2023-05-01T16:47:56.123Z,5.80
2023-05-01T16:50:29.214Z,5.00
2023-05-01T16:53:00.840Z,5.60
2023-05-01T16:55:28.744Z,4.87
2023-05-01T16:57:57.192Z,5.90
2023-05-01T17:00:30.513Z,5.53
2023-05-01T17:02:59.111Z,5.70
2023-05-01T17:05:30.755Z,5.83
2023-05-01T17:07:58.630Z,7.13
2023-05-01T17:10:30.253Z,6.60
2023-05-01T17:13:02.035Z,6.00
2023-05-01T17:15:34.280Z,6.57
2023-05-01T17:18:06.310Z,6.80
2023-05-01T17:20:38.333Z,7.00
2023-05-01T17:23:06.101Z,5.83
2023-05-01T17:25:34.932Z,7.27
2023-05-01T17:28:03.675Z,7.07
2023-05-01T17:30:35.436Z,5.80
2023-05-01T17:33:04.166Z,6.50
2023-05-01T17:35:36.434Z,6.63
2023-05-01T17:38:04.723Z,5.77
2023-05-01T17:40:39.725Z,4.80
2023-05-01T17:43:18.048Z,5.50
2023-05-01T17:45:51.085Z,5.43
2023-05-01T17:48:27.731Z,6.33
2023-05-01T17:50:55.892Z,6.07
2023-05-01T17:53:24.227Z,6.37
2023-05-01T17:55:53.268Z,6.20
2023-05-01T17:58:29.050Z,5.80
2023-05-01T18:01:01.467Z,6.80
2023-05-01T18:03:32.687Z,7.70
2023-05-01T18:06:04.803Z,10.20
2023-05-01T18:08:34.898Z,9.07
2023-05-01T18:11:03.654Z,8.27
2023-05-01T18:13:38.353Z,6.43
2023-05-01T18:16:09.084Z,6.23
2023-05-01T18:18:36.954Z,7.80
2023-05-01T18:21:07.851Z,7.17
2023-05-01T18:23:35.766Z,6.03
2023-05-01T18:26:09.723Z,6.77
2023-05-01T18:28:42.069Z,6.40
2023-05-01T18:31:12.021Z,7.43
2023-05-01T18:33:45.222Z,5.83
2023-05-01T18:36:13.374Z,6.00
2023-05-01T18:38:44.212Z,6.63
2023-05-01T18:41:15.789Z,6.57
2023-05-01T18:43:47.029Z,7.57
2023-05-01T18:46:21.080Z,7.03
2023-05-01T18:48:48.919Z,5.77
2023-05-01T18:51:19.329Z,7.10
2023-05-01T18:53:59.404Z,7.30
2023-05-01T18:56:27.634Z,6.37
2023-05-01T18:59:05.268Z,7.50
2023-05-01T19:01:40.585Z,8.40
2023-05-01T19:04:08.861Z,8.87
2023-05-01T19:06:36.993Z,8.17
2023-05-01T19:09:11.081Z,9.03
2023-05-01T19:11:43.781Z,8.53
2023-05-01T19:14:11.749Z,7.73
2023-05-01T19:16:41.681Z,7.97
2023-05-01T19:19:12.014Z,8.00
2023-05-01T19:21:40.881Z,8.20
2023-05-01T19:24:09.522Z,7.50
2023-05-01T19:26:42.455Z,7.50
2023-05-01T19:29:11.564Z,6.77
2023-05-01T19:31:41.340Z,7.37
2023-05-01T19:34:09.797Z,7.83
2023-05-01T19:36:40.377Z,7.77
2023-05-01T19:39:19.239Z,8.27
2023-05-01T19:41:53.154Z,8.43
2023-05-01T19:44:20.895Z,6.97
2023-05-01T19:46:52.989Z,7.53
2023-05-01T19:49:21.087Z,7.57
2023-05-01T19:51:55.276Z,7.90
2023-05-01T19:54:26.024Z,8.20
2023-05-01T19:56:54.000Z,6.90
2023-05-01T19:59:26.821Z,6.50
2023-05-01T20:01:59.627Z,7.20
2023-05-01T20:04:29.354Z,6.53
2023-05-01T20:06:58.847Z,7.57
2023-05-01T20:09:28.277Z,8.00
2023-05-01T20:11:59.459Z,6.80
2023-05-01T20:14:28.028Z,6.37
2023-05-01T20:16:57.552Z,7.07
2023-05-01T20:19:26.476Z,6.90
2023-05-01T20:21:56.481Z,7.83
2023-05-01T20:24:27.310Z,6.40
2023-05-01T20:26:59.412Z,6.13
2023-05-01T20:29:27.331Z,5.87
2023-05-01T20:31:55.622Z,6.93
2023-05-01T20:34:25.498Z,5.90
2023-05-01T20:36:53.674Z,6.30
2023-05-01T20:39:22.196Z,7.60
2023-05-01T20:41:51.700Z,5.97
2023-05-01T20:44:19.586Z,5.90
2023-05-01T20:46:49.075Z,5.67
2023-05-01T20:49:21.922Z,5.60
2023-05-01T20:51:52.918Z,5.67
2023-05-01T20:54:22.407Z,5.50
2023-05-01T20:56:53.584Z,5.30
2023-05-01T20:59:21.679Z,5.33
2023-05-01T21:01:52.530Z,5.40
2023-05-01T21:04:20.497Z,7.20
2023-05-01T21:06:50.439Z,6.60
2023-05-01T21:09:23.379Z,6.53
2023-05-01T21:11:56.609Z,5.63
2023-05-01T21:14:30.151Z,5.53
2023-05-01T21:17:02.339Z,5.47
2023-05-01T21:19:33.674Z,5.30
2023-05-01T21:22:04.900Z,5.50
2023-05-01T21:24:37.847Z,4.70
2023-05-01T21:27:07.664Z,5.60
2023-05-01T21:29:38.265Z,5.70
2023-05-01T21:32:10.988Z,7.20
2023-05-01T21:34:42.055Z,6.30
2023-05-01T21:37:10.878Z,5.80
2023-05-01T21:39:44.759Z,5.73
2023-05-01T21:42:16.373Z,4.77
2023-05-01T21:44:56.253Z,4.80
2023-05-01T21:47:37.643Z,5.60
2023-05-01T21:50:13.030Z,5.30
2023-05-01T21:52:42.993Z,6.00
2023-05-01T21:55:15.966Z,5.60
2023-05-01T21:57:44.729Z,5.70
2023-05-01T22:00:22.701Z,6.30
2023-05-01T22:02:52.688Z,5.87
2023-05-01T22:05:23.022Z,5.90
2023-05-01T22:07:54.922Z,5.50
2023-05-01T22:10:24.182Z,5.63
2023-05-01T22:12:52.615Z,6.37
2023-05-01T22:15:25.462Z,5.77
2023-05-01T22:17:59.528Z,6.30
2023-05-01T22:20:27.638Z,5.80
2023-05-01T22:22:56.071Z,5.80
2023-05-01T22:25:28.889Z,5.93
2023-05-01T22:28:03.133Z,5.63
2023-05-01T22:30:32.587Z,5.90
2023-05-01T22:33:00.705Z,5.80
2023-05-01T22:35:29.458Z,5.83
2023-05-01T22:37:58.274Z,6.00
2023-05-01T22:40:32.388Z,6.67
2023-05-01T22:43:00.363Z,5.53
2023-05-01T22:45:30.376Z,5.63
2023-05-01T22:48:07.694Z,5.97
2023-05-01T22:50:35.918Z,5.67
2023-05-01T22:53:07.655Z,5.63
2023-05-01T22:55:54.495Z,5.77
2023-05-01T22:58:29.372Z,6.00
2023-05-01T23:00:57.780Z,5.93
2023-05-01T23:03:27.426Z,5.67
2023-05-01T23:05:55.927Z,6.30
2023-05-01T23:08:23.708Z,5.27
2023-05-01T23:10:57.177Z,5.80
2023-05-01T23:13:27.179Z,6.47
2023-05-01T23:15:55.224Z,5.93
2023-05-01T23:18:30.743Z,5.90
2023-05-01T23:20:59.950Z,6.37
2023-05-01T23:23:31.598Z,5.90
2023-05-01T23:26:01.789Z,5.60
2023-05-01T23:28:31.911Z,6.33
2023-05-01T23:31:01.172Z,5.80
2023-05-01T23:33:34.470Z,6.57
2023-05-01T23:36:02.947Z,5.43
2023-05-01T23:38:34.243Z,6.37
2023-05-01T23:41:06.765Z,5.70
2023-05-01T23:43:34.985Z,5.97
2023-05-01T23:46:03.481Z,6.63
2023-05-01T23:48:35.357Z,5.80
2023-05-01T23:51:04.549Z,6.60
2023-05-01T23:53:38.944Z,7.60
2023-05-01T23:56:12.301Z,7.17
2023-05-01T23:58:43.045Z,5.80
